M I D A S
Marine Information and Data Acquisition System
Tripno 368 of the Zeeleeuw from 2002-12-12 07:33:05 to 2002-12-12 14:35:26
Back to CruiseResearch ActivitiesStationsMapUnderway DataData graphs

EquipmentUnitsComment
TimeDGPSUTC
LatitudeDGPSDM.mWGS84
LongitudeDGPSDM.mWGS84
TemperatureSBE03/SBE38deg celciusITS90
ConductivitySBE21S/mITS90
SalinitySBE21 Practical Salinity Units
ChlorophylAChelsea fluorimeterg/lCalibrated in Aceton
Missing or incorrect values are displayed as -999
Sea surface data collected by the RV Zeeleeuw from 2002-12-12 07:33:05 to 2002-12-12 14:35:26
Time Latitude Longitude Temperature Conductivity Salinity ChlorophylA
2002-12-12 07:34:08 51°13.536 2°56.278 11.708847 0.00105 0.013117  
2002-12-12 07:35:08 51°13.544 2°56.29 11.72461 0.00105 0.013116  
2002-12-12 07:36:09 51°13.527 2°56.269 11.70775 0.00105 0.013115  
2002-12-12 07:37:08 51°13.527 2°56.261 11.700895 0.00105 0.013115  
2002-12-12 07:38:08 51°13.516 2°56.261 11.712228 0.00105 0.013114  
2002-12-12 07:39:09 51°13.512 2°56.258 11.696141 0.00105 0.013113  
2002-12-12 07:40:09 51°13.529 2°56.237 11.697787 0.00105 0.013112  
2002-12-12 07:41:09 51°13.544 2°56.199 11.712548 0.00105 0.01311  
2002-12-12 07:42:08 51°13.559 2°56.152 11.725159 0.00105 0.013109  
2002-12-12 07:43:09 51°13.582 2°56.082 11.732696 0.00105 0.013108  
2002-12-12 07:44:09 51°13.619 2°55.987 11.743248 0.00105 0.013107  
2002-12-12 07:45:09 51°13.665 2°55.869 11.756446 0.00105 0.013107  
2002-12-12 07:46:09 51°13.723 2°55.748 11.773568 0.00105 0.013107  
2002-12-12 07:47:09 51°13.806 2°55.646 11.778818 0.00105 0.013107  
2002-12-12 07:48:09 51°13.912 2°55.571 11.75672 0.00105 0.013107  
2002-12-12 07:49:09 51°14.019 2°55.495 11.768272 0.00105 0.013108  
2002-12-12 07:50:09 51°14.125 2°55.411 11.780644 0.00105 0.013108  
2002-12-12 07:51:09 51°14.224 2°55.304 11.763113 0.00105 0.013109  
2002-12-12 07:52:09 51°14.313 2°55.147 -999 0.00105 0.01311  
2002-12-12 07:53:09 51°14.406 2°54.931 -999 0.00105 0.013111  
2002-12-12 07:54:09 51°14.517 2°54.658 -999 0.00105 0.01311  
2002-12-12 07:55:09 51°14.625 2°54.352 -999 0.00105 0.01311  
2002-12-12 07:56:07 51°14.726 2°54.05 -999 0.00105 0.013111  
2002-12-12 07:57:09 51°14.832 2°53.723 -999 0.00105 0.013111  
2002-12-12 07:58:09 51°14.934 2°53.399 -999 0.00105 0.013111  
2002-12-12 07:59:09 51°15.037 2°53.072 -999 0.00105 0.013111  
2002-12-12 08:00:09 51°15.142 2°52.749 -999 0.00105 0.013111  
2002-12-12 08:01:09 51°15.248 2°52.43 -999 0.00105 0.013111  
2002-12-12 08:02:09 51°15.328 2°52.097 15.965552 0.00105 0.013112  
2002-12-12 08:03:09 51°15.389 2°51.757 16.062161 0.00105 0.013111  
2002-12-12 08:04:09 51°15.438 2°51.414 5.020827 2.061911 18.058941  
2002-12-12 08:05:09 51°15.465 2°51.064 5.014794 3.031222 30.888627  
2002-12-12 08:06:09 51°15.493 2°50.713 5.041204 3.018592 30.830391  
2002-12-12 08:07:09 51°15.526 2°50.365 5.145516 3.027539 30.92254  
2002-12-12 08:08:09 51°15.57 2°50.019 5.149968 3.029222 30.884529  
2002-12-12 08:09:07 51°15.629 2°49.692 5.33148 3.05017 31.108559  
2002-12-12 08:10:09 51°15.689 2°49.343 5.524693 3.090592 31.357325  
2002-12-12 08:11:09 51°15.747 2°49.003 5.644574 3.105857 31.454131  
2002-12-12 08:12:09 51°15.805 2°48.655 5.746289 3.125228 31.573883  
2002-12-12 08:13:09 51°15.863 2°48.308 5.922048 3.155548 31.76258  
2002-12-12 08:14:08 51°15.921 2°47.967 6.095776 3.19124 31.974004  
2002-12-12 08:15:09 51°15.982 2°47.619 6.179947 3.208087 32.055458  
2002-12-12 08:16:08 51°16.038 2°47.284 6.199206 3.213562 32.07882  
2002-12-12 08:17:08 51°16.102 2°46.946 6.095776 3.220406 32.104338  
2002-12-12 08:18:09 51°16.188 2°46.614 6.18582 3.209772 32.104895  
2002-12-12 08:19:09 51°16.294 2°46.301 6.311708 3.209244 31.948158  
2002-12-12 08:20:09 51°16.449 2°46.035 6.331871 3.223564 32.077075  
2002-12-12 08:21:09 51°16.614 2°45.772 6.293775 3.237254 32.228823  
2002-12-12 08:22:09 51°16.779 2°45.506 6.494031 3.24631 32.284953  
2002-12-12 08:23:09 51°16.944 2°45.242 6.403927 3.256313 32.30046  
2002-12-12 08:24:09 51°17.112 2°44.982 6.435909 3.247363 32.285223  
2002-12-12 08:25:09 51°17.283 2°44.726 6.606803 3.262104 32.316474  
2002-12-12 08:26:09 51°17.448 2°44.486 6.690399 3.292011 32.48939  
2002-12-12 08:27:09 51°17.532 2°44.339 6.663929 3.297487 32.526701  
2002-12-12 08:28:09 51°17.547 2°44.289 6.65973 3.296961 32.541936  
2002-12-12 08:29:09 51°17.551 2°44.278 6.653802 3.295802 32.526029  
2002-12-12 08:30:09 51°17.55 2°44.267 6.6622 3.298225 32.548492  
2002-12-12 08:31:09 51°17.548 2°44.257 6.658989 3.298014 32.547804  
2002-12-12 08:32:09 51°17.543 2°44.25 6.656717 3.297803 32.547923  
2002-12-12 08:33:09 51°17.538 2°44.249 6.654691 3.297803 32.552772  
2002-12-12 08:34:09 51°17.533 2°44.252 6.694349 3.297488 32.550123  
2002-12-12 08:35:09 51°17.531 2°44.258 6.736004 3.296961 32.54436  
2002-12-12 08:36:09 51°17.529 2°44.268 6.649405 3.297803 32.551156  
2002-12-12 08:37:09 51°17.527 2°44.279 6.650047 3.297488 32.553356  
2002-12-12 08:38:09 51°17.523 2°44.288 6.653703 3.297593 32.548043  
2002-12-12 08:39:09 51°17.518 2°44.296 6.658495 3.297382 32.549779  
2002-12-12 08:40:09 51°17.514 2°44.3 6.648219 3.297698 32.550003  
2002-12-12 08:41:09 51°17.511 2°44.306 6.726432 3.296961 32.549209  
2002-12-12 08:42:09 51°17.51 2°44.315 6.687239 3.296961 32.549209  
2002-12-12 08:43:09 51°17.511 2°44.327 6.648022 3.297382 32.551395  
2002-12-12 08:44:09 51°17.514 2°44.341 6.644118 3.296856 32.550482  
2002-12-12 08:45:09 51°17.52 2°44.35 6.64896 3.296961 32.549209  
2002-12-12 08:46:09 51°17.529 2°44.354 6.65064 3.297382 32.546546  
2002-12-12 08:47:09 51°17.541 2°44.354 6.645749 3.297382 32.552204  
2002-12-12 08:48:09 51°17.552 2°44.351 6.650986 3.297172 32.549898  
2002-12-12 08:49:09 51°17.565 2°44.351 6.653654 3.297593 32.552084  
2002-12-12 08:50:09 51°17.58 2°44.356 6.655482 3.297803 32.551156  
2002-12-12 08:51:09 51°17.595 2°44.359 6.651678 3.298014 32.554269  
2002-12-12 08:52:09 51°17.611 2°44.362 6.649356 3.298014 32.555886  
2002-12-12 08:53:09 51°17.653 2°44.367 6.654395 3.297698 32.552428  
2002-12-12 08:54:09 51°17.686 2°44.319 6.6622 3.298119 32.554613  
2002-12-12 08:55:09 51°17.717 2°44.269 6.702642 3.298857 32.558639  
2002-12-12 08:56:09 51°17.734 2°44.265 6.662249 3.299278 32.561632  
2002-12-12 08:57:09 51°17.755 2°44.267 6.706197 3.299488 32.560704  
2002-12-12 08:58:09 51°17.778 2°44.277 6.709849 3.30012 32.565192  
2002-12-12 08:59:09 51°17.799 2°44.29 6.707776 3.30012 32.565192  
2002-12-12 09:00:09 51°17.816 2°44.306 6.670399 3.30012 32.566809  
2002-12-12 09:01:09 51°17.833 2°44.327 6.664719 3.300436 32.567841  
2002-12-12 09:02:09 51°17.849 2°44.35 6.668078 3.300436 32.567841  
2002-12-12 09:03:09 51°17.863 2°44.376 6.747203 3.299383 32.554703  
2002-12-12 09:04:09 51°17.876 2°44.4 6.703334 3.299594 32.560239  
2002-12-12 09:05:09 51°17.887 2°44.426 6.661508 3.299067 32.559327  
2002-12-12 09:06:09 51°17.894 2°44.45 6.744145 3.299173 32.559671  
2002-12-12 09:07:09 51°17.9 2°44.475 6.666695 3.30012 32.562768  
2002-12-12 09:08:09 51°17.911 2°44.576 6.66052 3.300331 32.569922  
2002-12-12 09:09:09 51°17.977 2°44.719 6.657556 3.298962 32.5606  
2002-12-12 09:10:09 51°18.063 2°44.868 6.69894 3.299804 32.568202  
2002-12-12 09:11:09 51°18.152 2°45.018 6.664373 3.300331 32.573156  
2002-12-12 09:12:09 51°18.24 2°45.173 6.671733 3.301384 32.578211  
2002-12-12 09:13:09 51°18.329 2°45.329 6.720855 3.302016 32.577039  
2002-12-12 09:14:09 51°18.42 2°45.486 6.685362 3.30328 32.585204  
2002-12-12 09:15:09 51°18.51 2°45.642 6.771617 3.304543 32.594175  
2002-12-12 09:16:09 51°18.599 2°45.795 6.697953 3.306544 32.60393  
2002-12-12 09:17:09 51°18.677 2°45.931 6.701112 3.30665 32.60589  
2002-12-12 09:18:09 51°18.746 2°46.044 6.700075 3.307176 32.61003  
2002-12-12 09:19:09 51°18.815 2°46.158 6.702939 3.308019 32.616816  
2002-12-12 09:20:09 51°18.889 2°46.281 6.751495 3.308967 32.619901  
2002-12-12 09:21:09 51°18.965 2°46.406 6.716759 3.310336 32.631632  
2002-12-12 09:22:09 51°19.041 2°46.53 6.743651 3.309704 32.626342  
2002-12-12 09:23:09 51°19.118 2°46.658 6.704765 3.308967 32.62637  
2002-12-12 09:24:09 51°19.198 2°46.782 6.79331 3.309493 32.632127  
2002-12-12 09:25:09 51°19.278 2°46.904 6.664176 3.309388 32.632594  
2002-12-12 09:26:09 51°19.357 2°47.027 6.639226 3.305597 32.616211  
2002-12-12 09:27:09 51°19.436 2°47.145 6.559868 3.295908 32.579759  
2002-12-12 09:28:09 51°19.518 2°47.27 6.495021 3.28464 32.528302  
2002-12-12 09:29:09 51°19.6 2°47.393 6.458857 3.279796 32.511601  
2002-12-12 09:30:09 51°19.672 2°47.501 6.483778 3.275268 32.490232  
2002-12-12 09:31:09 51°19.73 2°47.57 6.488781 3.278217 32.506414  
2002-12-12 09:32:09 51°19.776 2°47.619 6.508392 3.282008 32.524537  
2002-12-12 09:33:09 51°19.813 2°47.655 6.51869 3.284219 32.536656  
2002-12-12 09:34:09 51°19.839 2°47.683 6.541658 3.289695 32.561074  
2002-12-12 09:35:09 51°19.86 2°47.705 6.541955 3.288326 32.556596  
2002-12-12 09:36:09 51°19.879 2°47.718 6.533689 3.288958 32.559474  
2002-12-12 09:37:09 51°19.896 2°47.722 6.65148 3.291591 32.570517  
2002-12-12 09:38:09 51°19.909 2°47.721 6.649899 3.304754 32.632905  
2002-12-12 09:39:09 51°19.919 2°47.719 6.643377 3.305386 32.634151  
2002-12-12 09:40:09 51°19.929 2°47.714 6.734277 3.304754 32.633716  
2002-12-12 09:41:09 51°19.938 2°47.711 6.701507 3.305597 32.634026  
2002-12-12 09:42:09 51°19.945 2°47.709 6.682696 3.30665 32.642313  
2002-12-12 09:43:09 51°19.951 2°47.707 6.676573 3.308019 32.648384  
2002-12-12 09:44:09 51°19.957 2°47.705 6.678202 3.308862 32.652742  
2002-12-12 09:45:09 51°19.963 2°47.704 6.696422 3.309704 32.654669  
2002-12-12 09:46:09 51°19.97 2°47.704 6.714538 3.312021 32.665433  
2002-12-12 09:47:09 51°19.979 2°47.702 6.717993 3.313811 32.675292  
2002-12-12 09:48:09 51°19.987 2°47.699 6.723323 3.316128 32.684425  
2002-12-12 09:49:09 51°19.998 2°47.691 6.727369 3.315917 32.685362  
2002-12-12 09:50:09 51°20.018 2°47.672 6.785423 3.317602 32.691632  
2002-12-12 09:51:09 51°20.036 2°47.641 6.887738 3.330977 32.752671  
2002-12-12 09:52:09 51°20.043 2°47.61 7.016666 3.342983 32.807487  
2002-12-12 09:53:09 51°20.042 2°47.583 6.976668 3.348144 32.832131  
2002-12-12 09:54:09 51°20.035 2°47.564 6.946285 3.348354 32.836038  
2002-12-12 09:55:09 51°20.027 2°47.553 6.943826 3.349408 32.838606  
2002-12-12 09:56:09 51°20.019 2°47.547 6.936793 3.34846 32.83476  
2002-12-12 09:57:09 51°20.012 2°47.546 6.939203 3.348249 32.834085  
2002-12-12 09:58:09 51°20.008 2°47.55 6.964133 3.347407 32.831383  
2002-12-12 09:59:09 51°20.004 2°47.559 6.962068 3.345195 32.817013  
2002-12-12 10:00:09 51°20 2°47.571 6.934481 3.345616 32.819174  
2002-12-12 10:01:09 51°20.002 2°47.586 6.932366 3.346564 32.821407  
2002-12-12 10:02:09 51°20.006 2°47.603 6.918297 3.346143 32.821672  
2002-12-12 10:03:09 51°20.016 2°47.62 6.908457 3.344036 32.812486  
2002-12-12 10:04:09 51°20.03 2°47.638 6.926365 3.343404 32.806416  
2002-12-12 10:05:09 51°20.047 2°47.657 6.903044 3.344352 32.80946  
2002-12-12 10:06:09 51°20.065 2°47.677 6.838103 3.34014 32.795924  
2002-12-12 10:07:09 51°20.078 2°47.7 6.830862 3.332136 32.758833  
2002-12-12 10:08:09 51°20.086 2°47.723 6.822634 3.332136 32.757215  
2002-12-12 10:09:09 51°20.087 2°47.743 6.82559 3.329819 32.747316  
2002-12-12 10:10:09 51°20.082 2°47.756 6.785571 3.330661 32.748416  
2002-12-12 10:11:09 51°20.072 2°47.756 6.742665 3.323079 32.717453  
2002-12-12 10:12:09 51°20.065 2°47.737 6.671189 3.314127 32.676317  
2002-12-12 10:13:09 51°20.064 2°47.706 6.667041 3.307282 32.642747  
2002-12-12 10:14:09 51°20.072 2°47.669 6.620397 3.308651 32.649627  
2002-12-12 10:15:09 51°20.087 2°47.626 6.758203 3.305176 32.636707  
2002-12-12 10:16:09 51°20.094 2°47.517 6.911655 3.325817 32.724686  
2002-12-12 10:17:09 51°20.093 2°47.218 6.986154 3.346669 32.822553  
2002-12-12 10:18:09 51°20.089 2°46.872 6.998931 3.354568 32.852713  
2002-12-12 10:19:09 51°20.076 2°46.511 6.990479 3.354884 32.851303  
2002-12-12 10:20:09 51°20.041 2°46.153 6.958627 3.349723 32.82589  
2002-12-12 10:21:09 51°19.949 2°45.827 7.005072 3.347196 32.804865  
2002-12-12 10:22:09 51°19.821 2°45.535 6.941416 3.346353 32.790059  
2002-12-12 10:23:09 51°19.693 2°45.245 6.861448 3.338559 32.748041  
2002-12-12 10:24:09 51°19.571 2°44.947 6.796514 3.32529 32.686618  
2002-12-12 10:25:09 51°19.45 2°44.648 6.765157 3.318128 32.647257  
2002-12-12 10:26:09 51°19.329 2°44.349 6.787691 3.313179 32.619871  
2002-12-12 10:27:09 51°19.206 2°44.051 6.766242 3.309809 32.600023  
2002-12-12 10:28:09 51°19.104 2°43.843 6.725741 3.307492 32.586823  
2002-12-12 10:29:09 51°19.041 2°43.838 6.713008 3.306333 32.57901  
2002-12-12 10:30:09 51°18.999 2°43.871 6.709504 3.305175 32.573617  
2002-12-12 10:31:09 51°18.926 2°43.878 6.69583 3.304017 32.569836  
2002-12-12 10:32:09 51°18.856 2°43.874 6.731514 3.302332 32.561913  
2002-12-12 10:33:09 51°18.842 2°43.894 6.684819 3.301173 32.557322  
2002-12-12 10:34:09 51°18.846 2°43.904 6.687979 3.300857 32.554674  
2002-12-12 10:35:09 51°18.858 2°43.917 6.690103 3.301489 32.555931  
2002-12-12 10:36:09 51°18.872 2°43.935 6.693065 3.3017 32.550162  
2002-12-12 10:37:09 51°18.886 2°43.948 6.694842 3.302016 32.554423  
2002-12-12 10:38:09 51°18.899 2°43.957 6.685264 3.301384 32.551551  
2002-12-12 10:39:09 51°18.912 2°43.963 6.681313 3.301279 32.553629  
2002-12-12 10:40:09 51°18.925 2°43.964 6.685659 3.300963 32.554211  
2002-12-12 10:41:09 51°18.939 2°43.962 6.727962 3.301279 32.555243  
2002-12-12 10:42:09 51°18.952 2°43.957 6.68793 3.301489 32.557546  
2002-12-12 10:43:09 51°18.965 2°43.952 6.7288 3.301279 32.554436  
2002-12-12 10:44:09 51°18.977 2°43.941 6.690152 3.301279 32.556051  
2002-12-12 10:45:09 51°18.992 2°43.938 6.687881 3.301068 32.554555  
2002-12-12 10:46:09 51°19.045 2°43.921 6.692473 3.301279 32.558473  
2002-12-12 10:47:09 51°19.032 2°43.795 6.700174 3.302753 32.565711  
2002-12-12 10:48:09 51°18.959 2°43.803 6.703087 3.302542 32.560986  
2002-12-12 10:49:09 51°18.913 2°43.809 6.735264 3.302121 32.55961  
2002-12-12 10:50:09 51°18.898 2°43.82 6.733241 3.301279 32.554436  
2002-12-12 10:51:09 51°18.898 2°43.821 6.688276 3.301279 32.553629  
2002-12-12 10:52:09 51°18.904 2°43.828 6.688572 3.300963 32.553404  
2002-12-12 10:53:09 51°18.915 2°43.843 6.700174 3.300752 32.550293  
2002-12-12 10:54:09 51°18.925 2°43.861 6.690399 3.3017 32.552583  
2002-12-12 10:55:09 51°18.933 2°43.879 6.699977 3.302121 32.560418  
2002-12-12 10:56:09 51°18.937 2°43.893 6.73704 3.302332 32.561913  
2002-12-12 10:57:09 51°18.937 2°43.902 6.692127 3.302226 32.559147  
2002-12-12 10:58:09 51°18.934 2°43.904 6.684869 3.301279 32.556051  
2002-12-12 10:59:09 51°18.929 2°43.9 6.683881 3.300541 32.553642  
2002-12-12 11:00:09 51°18.922 2°43.898 6.682252 3.300647 32.554794  
2002-12-12 11:01:09 51°18.909 2°43.892 6.683782 3.300752 32.555945  
2002-12-12 11:02:09 51°18.892 2°43.868 6.681215 3.300436 32.555721  
2002-12-12 11:03:09 51°18.878 2°43.822 6.67919 3.300436 32.557336  
2002-12-12 11:04:09 51°18.876 2°43.764 6.681708 3.30012 32.556304  
2002-12-12 11:05:09 51°18.886 2°43.7 6.682449 3.29991 32.549962  
2002-12-12 11:06:09 51°18.91 2°43.643 6.689806 3.300015 32.548691  
2002-12-12 11:07:09 51°18.941 2°43.604 6.688473 3.300541 32.552027  
2002-12-12 11:08:09 51°18.974 2°43.583 6.687436 3.301068 32.554555  
2002-12-12 11:09:09 51°19.005 2°43.578 6.698446 3.30191 32.55973  
2002-12-12 11:10:09 51°19.032 2°43.579 6.697459 3.302332 32.558684  
2002-12-12 11:11:09 51°19.057 2°43.592 6.746414 3.300962 32.541297  
2002-12-12 11:12:09 51°19.124 2°43.6 6.70284 3.302858 32.561211  
2002-12-12 11:13:09 51°19.141 2°43.492 6.710688 3.30349 32.568118  
2002-12-12 11:14:09 51°19.088 2°43.378 6.719326 3.304122 32.56453  
2002-12-12 11:15:09 51°19.026 2°43.271 6.772603 3.305491 32.570612  
2002-12-12 11:16:09 51°18.966 2°43.161 6.754208 3.308018 32.581277  
2002-12-12 11:17:09 51°18.908 2°43.05 6.754306 3.310546 32.594355  
2002-12-12 11:18:09 51°18.86 2°42.953 6.746562 3.31023 32.598167  
2002-12-12 11:19:09 51°18.819 2°42.867 6.74153 3.309177 32.593122  
2002-12-12 11:20:09 51°18.782 2°42.785 6.781281 3.30865 32.591406  
2002-12-12 11:21:09 51°18.748 2°42.705 6.735067 3.308545 32.590256  
2002-12-12 11:22:09 51°18.714 2°42.627 6.770483 3.307808 32.589468  
2002-12-12 11:23:09 51°18.678 2°42.553 6.729985 3.307597 32.588781  
2002-12-12 11:24:09 51°18.64 2°42.487 6.815785 3.307702 32.589932  
2002-12-12 11:25:09 51°18.6 2°42.429 6.735314 3.308861 32.596936  
2002-12-12 11:26:09 51°18.554 2°42.37 6.735412 3.309072 32.599237  
2002-12-12 11:27:09 51°18.466 2°42.272 6.733636 3.308966 32.600509  
2002-12-12 11:28:09 51°18.358 2°42.159 6.734228 3.309598 32.607412  
2002-12-12 11:29:09 51°18.248 2°42.042 6.731416 3.310019 32.609591  
2002-12-12 11:30:09 51°18.149 2°41.935 6.729195 3.309388 32.608341  
2002-12-12 11:31:09 51°18.056 2°41.831 6.773146 3.31023 32.610277  
2002-12-12 11:32:09 51°17.965 2°41.727 6.712811 3.308019 32.598229  
2002-12-12 11:33:09 51°17.87 2°41.638 6.738817 3.305175 32.587345  
2002-12-12 11:34:09 51°17.776 2°41.561 6.763628 3.303385 32.583931  
2002-12-12 11:35:09 51°17.691 2°41.484 6.691979 3.304333 32.593489  
2002-12-12 11:36:09 51°17.612 2°41.401 6.732254 3.307176 32.614882  
2002-12-12 11:37:09 51°17.534 2°41.318 6.759091 3.304754 32.60214  
2002-12-12 11:38:09 51°17.454 2°41.234 6.665756 3.304754 32.611039  
2002-12-12 11:39:09 51°17.377 2°41.171 6.659137 3.302016 32.595642  
2002-12-12 11:40:09 51°17.326 2°41.18 6.697656 3.302437 32.598634  
2002-12-12 11:41:09 51°17.307 2°41.208 6.695632 3.301911 32.592871  
2002-12-12 11:42:09 51°17.302 2°41.234 6.659187 3.300436 32.57997  
2002-12-12 11:43:09 51°17.302 2°41.253 6.654494 3.29991 32.572589  
2002-12-12 11:44:09 51°17.301 2°41.265 6.658495 3.299173 32.567756  
2002-12-12 11:45:09 51°17.298 2°41.271 6.661903 3.299594 32.565089  
2002-12-12 11:46:09 51°17.296 2°41.274 6.661014 3.299488 32.563937  
2002-12-12 11:47:09 51°17.294 2°41.275 6.786606 3.300226 32.572812  
2002-12-12 11:48:09 51°17.294 2°41.276 6.712515 3.301279 32.577059  
2002-12-12 11:49:09 51°17.294 2°41.276 6.672967 3.302648 32.587994  
2002-12-12 11:50:09 51°17.294 2°41.273 6.674943 3.30012 32.557112  
2002-12-12 11:51:09 51°17.294 2°41.27 6.674646 3.302543 32.584416  
2002-12-12 11:52:09 51°17.295 2°41.267 6.667781 3.298962 32.548479  
2002-12-12 11:53:09 51°17.295 2°41.263 6.662002 3.297909 32.542612  
2002-12-12 11:54:09 51°17.294 2°41.258 6.667287 3.295486 32.517728  
2002-12-12 11:55:09 51°17.293 2°41.251 6.711231 3.299804 32.562544  
2002-12-12 11:56:09 51°17.29 2°41.242 6.672128 3.300647 32.566912  
2002-12-12 11:57:09 51°17.285 2°41.226 6.674449 3.300857 32.566792  
2002-12-12 11:58:09 51°17.277 2°41.21 6.674202 3.300963 32.567944  
2002-12-12 11:59:09 51°17.268 2°41.198 6.674251 3.302858 32.585447  
2002-12-12 12:00:09 51°17.261 2°41.192 6.672375 3.301384 32.57336  
2002-12-12 12:01:09 51°17.259 2°41.192 6.71518 3.301279 32.569783  
2002-12-12 12:02:09 51°17.268 2°41.196 6.673461 3.3017 32.574391  
2002-12-12 12:03:09 51°17.275 2°41.202 6.666398 3.300542 32.568993  
2002-12-12 12:04:09 51°17.283 2°41.211 6.668621 3.30012 32.565192  
2002-12-12 12:05:09 51°17.288 2°41.222 6.666003 3.300226 32.566345  
2002-12-12 12:06:09 51°17.291 2°41.231 6.703778 3.299804 32.560119  
2002-12-12 12:07:09 51°17.293 2°41.241 6.662348 3.299278 32.559207  
2002-12-12 12:08:09 51°17.294 2°41.251 6.658544 3.299488 32.561512  
2002-12-12 12:09:09 51°17.292 2°41.26 6.666942 3.299804 32.562544  
2002-12-12 12:10:09 51°17.29 2°41.27 6.667781 3.30012 32.562768  
2002-12-12 12:11:09 51°17.287 2°41.283 6.665262 3.29991 32.562888  
2002-12-12 12:12:09 51°17.283 2°41.295 6.70052 3.299067 32.556903  
2002-12-12 12:13:09 51°17.28 2°41.307 6.651431 3.298014 32.550228  
2002-12-12 12:14:09 51°17.278 2°41.317 6.690053 3.29675 32.545288  
2002-12-12 12:15:09 51°17.277 2°41.323 6.692127 3.29654 32.540558  
2002-12-12 12:16:09 51°17.277 2°41.323 6.651233 3.296645 32.540094  
2002-12-12 12:17:09 51°17.279 2°41.318 6.646935 3.296434 32.541022  
2002-12-12 12:18:09 51°17.282 2°41.308 6.649207 3.296224 32.5371  
2002-12-12 12:19:09 51°17.286 2°41.297 6.654296 3.296961 32.543552  
2002-12-12 12:20:09 51°17.289 2°41.292 6.659582 3.297698 32.548387  
2002-12-12 12:21:09 51°17.288 2°41.295 6.656074 3.297382 32.544122  
2002-12-12 12:22:09 51°17.275 2°41.302 6.662052 3.296961 32.541936  
2002-12-12 12:23:09 51°17.252 2°41.29 6.663583 3.297382 32.544122  
2002-12-12 12:24:09 51°17.233 2°41.251 6.657556 3.297066 32.541472  
2002-12-12 12:25:09 51°17.221 2°41.197 6.697311 3.297066 32.543088  
2002-12-12 12:26:09 51°17.214 2°41.141 6.694645 3.296645 32.540902  
2002-12-12 12:27:09 51°17.209 2°41.082 6.696817 3.297172 32.543433  
2002-12-12 12:28:09 51°17.202 2°41.007 6.736251 3.297172 32.544241  
2002-12-12 12:29:09 51°17.15 2°40.882 6.675535 3.297488 32.54689  
2002-12-12 12:30:09 51°17.031 2°40.802 6.676227 3.300015 32.564848  
2002-12-12 12:31:09 51°16.858 2°40.75 6.707332 3.299383 32.559551  
2002-12-12 12:32:09 51°16.698 2°40.693 6.666695 3.297909 32.544228  
2002-12-12 12:33:09 51°16.544 2°40.636 6.707776 3.298435 32.547565  
2002-12-12 12:34:09 51°16.391 2°40.578 6.660076 3.298435 32.546757  
2002-12-12 12:35:09 51°16.237 2°40.521 6.69657 3.298225 32.553341  
2002-12-12 12:36:09 51°16.083 2°40.463 6.658149 3.298857 32.561064  
2002-12-12 12:37:09 51°15.93 2°40.404 6.670251 3.298857 32.557023  
2002-12-12 12:38:09 51°15.778 2°40.335 6.634532 3.299594 32.556199  
2002-12-12 12:39:09 51°15.625 2°40.266 6.583809 3.294855 32.550409  
2002-12-12 12:40:09 51°15.473 2°40.2 6.586183 3.2898 32.543585  
2002-12-12 12:41:09 51°15.322 2°40.132 6.185522 3.276322 32.51806  
2002-12-12 12:42:09 51°15.173 2°40.063 6.101507 3.237571 32.355022  
2002-12-12 12:43:09 51°15.023 2°39.995 6.159139 3.228726 32.308432  
2002-12-12 12:44:09 51°14.873 2°39.925 6.015933 3.220513 32.266303  
2002-12-12 12:45:09 51°14.724 2°39.854 6.033845 3.215248 32.233976  
2002-12-12 12:46:09 51°14.578 2°39.854 6.053249 3.216828 32.241719  
2002-12-12 12:47:09 51°14.48 2°39.985 6.046915 3.21051 32.196038  
2002-12-12 12:48:09 51°14.465 2°40.13 6.051553 3.209983 32.182852  
2002-12-12 12:49:09 51°14.482 2°40.266 6.058435 3.217249 32.216221  
2002-12-12 12:50:09 51°14.499 2°40.398 6.009096 3.214616 32.209016  
2002-12-12 12:51:09 51°14.509 2°40.499 5.970007 3.209246 32.187712  
2002-12-12 12:52:09 51°14.511 2°40.581 5.942335 3.203771 32.169286  
2002-12-12 12:53:09 51°14.52 2°40.654 5.962616 3.201771 32.163362  
2002-12-12 12:54:09 51°14.506 2°40.725 5.888656 3.198823 32.151789  
2002-12-12 12:55:09 51°14.43 2°40.779 5.875154 3.196191 32.153535  
2002-12-12 12:56:09 51°14.337 2°40.879 5.854945 3.189031 32.127716  
2002-12-12 12:57:09 51°14.247 2°40.941 5.843337 3.186399 32.095081  
2002-12-12 12:58:09 51°14.157 2°40.996 5.827123 3.185451 32.077157  
2002-12-12 12:59:09 51°14.077 2°41.052 5.832078 3.183661 32.062099  
2002-12-12 13:00:09 51°14.069 2°41.038 5.877804 3.183556 32.053576  
2002-12-12 13:01:10 51°14.06 2°41.023 5.837332 3.184609 32.065314  
2002-12-12 13:02:09 51°14.048 2°41.019 5.880855 3.183977 32.059088  
2002-12-12 13:03:09 51°14.047 2°41.015 5.93599 3.184924 32.059038  
2002-12-12 13:04:09 51°14.051 2°41.006 5.952676 3.190926 32.084281  
2002-12-12 13:05:09 51°14.058 2°40.993 5.857847 3.186504 32.061949  
2002-12-12 13:06:09 51°14.064 2°40.977 5.853995 3.184819 32.051336  
2002-12-12 13:07:09 51°14.069 2°40.963 5.892406 3.184503 32.049448  
2002-12-12 13:08:09 51°14.074 2°40.948 5.848991 3.184398 32.050722  
2002-12-12 13:09:09 51°14.079 2°40.938 5.889206 3.184398 32.051538  
2002-12-12 13:10:09 51°14.088 2°40.96 5.849141 3.184714 32.054243  
2002-12-12 13:11:09 51°14.096 2°40.986 5.897105 3.184714 32.053427  
2002-12-12 13:12:09 51°14.102 2°41.003 5.86425 3.185556 32.054654  
2002-12-12 13:13:09 51°14.107 2°41.011 5.883055 3.187135 32.060829  
2002-12-12 13:14:09 51°14.11 2°41.013 5.978346 3.188715 32.062924  
2002-12-12 13:15:09 51°14.113 2°41.01 5.894856 3.189241 32.060633  
2002-12-12 13:16:09 51°14.115 2°41.006 5.890806 3.188925 32.061192  
2002-12-12 13:17:09 51°14.118 2°40.998 5.892956 3.188504 32.056503  
2002-12-12 13:18:09 51°14.122 2°40.989 5.974152 3.188504 32.056503  
2002-12-12 13:19:09 51°14.124 2°40.979 5.892806 3.188504 32.054873  
2002-12-12 13:20:09 51°14.124 2°40.976 5.897655 3.188609 32.056045  
2002-12-12 13:21:09 51°14.118 2°40.984 5.937939 3.18903 32.056659  
2002-12-12 13:22:09 51°14.102 2°40.995 5.897655 3.189136 32.056202  
2002-12-12 13:23:09 51°14.075 2°41.006 5.894456 3.188399 32.051257  
2002-12-12 13:24:09 51°14.041 2°41.012 5.894606 3.18703 32.040908  
2002-12-12 13:25:09 51°14.012 2°41.026 5.898755 3.186187 32.029902  
2002-12-12 13:26:09 51°13.995 2°41.044 5.896855 3.185872 32.025572  
2002-12-12 13:27:09 51°13.979 2°41.058 5.897905 3.185766 32.02033  
2002-12-12 13:28:09 51°13.96 2°41.065 5.98244 3.18524 32.014471  
2002-12-12 13:29:09 51°13.937 2°41.069 5.902655 3.184924 32.009328  
2002-12-12 13:30:09 51°13.874 2°41.169 5.894156 3.184503 32.005455  
2002-12-12 13:31:09 51°13.898 2°41.438 5.873753 3.182923 31.996826  
2002-12-12 13:32:09 51°13.941 2°41.715 5.862099 3.180923 31.998154  
2002-12-12 13:33:09 51°13.982 2°41.977 5.899155 3.180186 31.985875  
2002-12-12 13:34:09 51°14.019 2°42.225 5.9183 3.176185 31.960026  
2002-12-12 13:35:11 51°14.056 2°42.476 5.822868 3.173658 31.944075  
2002-12-12 13:36:11 51°14.094 2°42.719 5.819214 3.171131 31.928928  
2002-12-12 13:37:11 51°14.131 2°42.963 5.724184 3.160919 31.876846  
2002-12-12 13:38:09 51°14.166 2°43.192 5.719873 3.15597 31.850889  
2002-12-12 13:39:11 51°14.199 2°43.412 5.70468 3.15418 31.837405  
2002-12-12 13:40:10 51°14.23 2°43.617 5.687778 3.150285 31.811777  
2002-12-12 13:41:11 51°14.27 2°43.825 5.727443 3.149338 31.810137  
2002-12-12 13:42:11 51°14.313 2°44.029 5.700417 3.149759 31.811589  
2002-12-12 13:43:11 51°14.357 2°44.233 5.73426 3.152812 31.825368  
2002-12-12 13:44:11 51°14.399 2°44.436 5.727443 3.157865 31.85415  
2002-12-12 13:45:11 51°14.442 2°44.642 5.729448 3.153022 31.82772  
2002-12-12 13:46:09 51°14.484 2°44.839 5.783013 3.153549 31.82872  
2002-12-12 13:47:11 51°14.528 2°45.052 5.771792 3.158497 31.853068  
2002-12-12 13:48:11 51°14.571 2°45.259 5.79383 3.161129 31.8613  
2002-12-12 13:49:11 51°14.613 2°45.465 5.748093 3.164077 31.873861  
2002-12-12 13:50:11 51°14.646 2°45.677 5.455203 3.131651 31.712296  
2002-12-12 13:51:11 51°14.677 2°45.89 5.421512 3.105332 31.553662  
2002-12-12 13:52:11 51°14.708 2°46.105 5.399394 3.104068 31.532956  
2002-12-12 13:53:11 51°14.74 2°46.319 5.416928 3.093541 31.469054  
2002-12-12 13:54:09 51°14.771 2°46.524 5.357101 3.090278 31.442085  
2002-12-12 13:55:11 51°14.805 2°46.743 5.434305 3.088593 31.432067  
2002-12-12 13:56:11 51°14.838 2°46.955 5.33491 3.085225 31.408768  
2002-12-12 13:57:11 51°14.871 2°47.167 5.406599 3.08333 31.394742  
2002-12-12 13:58:12 51°14.907 2°47.382 5.356194 3.080277 31.373353  
2002-12-12 13:59:11 51°14.941 2°47.59 5.263796 3.076066 31.349458  
2002-12-12 14:00:09 51°14.975 2°47.796 5.234095 3.068382 31.305033  
2002-12-12 14:01:11 51°15.012 2°48.016 5.248089 3.060908 31.249914  
2002-12-12 14:02:09 51°15.045 2°48.222 5.216966 3.063434 31.263822  
2002-12-12 14:03:12 51°15.081 2°48.445 5.180062 3.056697 31.220224  
2002-12-12 14:04:11 51°15.115 2°48.654 5.146224 3.052171 31.19343  
2002-12-12 14:05:11 51°15.15 2°48.869 5.101533 3.044276 31.149607  
2002-12-12 14:06:11 51°15.186 2°49.083 5.023261 3.037013 31.107978  
2002-12-12 14:07:11 51°15.222 2°49.296 4.934434 3.020593 31.016788  
2002-12-12 14:08:11 51°15.256 2°49.511 4.928138 3.011857 30.967909  
2002-12-12 14:09:11 51°15.29 2°49.725 4.91707 3.004489 30.927176  
2002-12-12 14:10:11 51°15.323 2°49.938 4.88817 3.005226 30.926626  
2002-12-12 14:11:09 51°15.354 2°50.145 4.941134 3.007752 30.941549  
2002-12-12 14:12:11 51°15.389 2°50.37 4.87313 3.007858 30.942745  
2002-12-12 14:13:11 51°15.414 2°50.55 4.887611 3.0067 30.936888  
2002-12-12 14:14:11 51°15.435 2°50.69 4.88568 3.005753 30.934234  
2002-12-12 14:15:09 51°15.453 2°50.81 4.929002 3.006174 30.938209  
2002-12-12 14:16:11 51°15.472 2°50.936 4.891827 3.006384 30.941415  
2002-12-12 14:17:11 51°15.491 2°51.058 4.911839 3.005963 30.938251  
2002-12-12 14:18:11 51°15.51 2°51.188 4.906761 3.003648 30.929777  
2002-12-12 14:19:09 51°15.527 2°51.388 4.878313 3.003542 30.935077  
2002-12-12 14:20:11 51°15.465 2°51.627 4.720399 2.991965 30.87554  
2002-12-12 14:21:13 51°15.366 2°51.849 4.752227 2.982492 30.822765  
2002-12-12 14:22:13 51°15.287 2°52.076 4.711382 2.979124 30.79732  
2002-12-12 14:23:13 51°15.229 2°52.318 4.650217 2.969231 30.728988  
2002-12-12 14:24:13 51°15.167 2°52.559 4.629764 2.966705 30.713921  
2002-12-12 14:25:17 51°15.1 2°52.814 4.662455 2.962811 30.683197  
2002-12-12 14:26:17 51°15.037 2°53.054 4.593688 2.960706 30.666428  
2002-12-12 14:27:18 51°14.973 2°53.299 4.583173 2.95597 30.629287  
2002-12-12 14:28:17 51°14.908 2°53.534 4.602007 2.949024 30.565204  
2002-12-12 14:29:17 51°14.835 2°53.77 4.590523 2.95155 30.577908  
2002-12-12 14:30:19 51°14.759 2°54.013 4.622469 2.949445 30.565972  
2002-12-12 14:31:21 51°14.68 2°54.256 4.597363 2.950918 30.560166  
2002-12-12 14:32:21 51°14.606 2°54.491 4.692172 2.944919 30.506924  
2002-12-12 14:33:21 51°14.518 2°54.715 4.594811 2.94976 30.540462  
2002-12-12 14:34:19 51°14.428 2°54.935 4.438533 2.900192 30.034132  
2002-12-12 14:35:20 51°14.327 2°55.159 4.144031 2.834952 29.516867